Time;durP1;ratioP1;P1;durP2;ratioP2;P2;SDS_P1;SDS_P2;PMS_P1;PMS_P2;Temp;Humidity;BMP_temperature;BMP_pressure;BME280_temperature;BME280_humidity;BME280_pressure;Samples;Min_cycle;Max_cycle;Signal;HPM_P1;HPM_P2
2023/01/07 00:01:34;;;;;;;;;;;;;;;20.28;54.95;101376.31;5017482;28;5266;-59
2023/01/07 00:04:00;;;;;;;;;;;;;;;20.28;55.00;101375.56;5022635;28;4168;-59
2023/01/07 00:06:32;;;;;;;;;;;;;;;20.28;54.95;101369.81;5022085;28;5190;-59
2023/01/07 00:08:58;;;;;;;;;;;;;;;20.27;54.94;101374.06;5021728;28;4276;-59
2023/01/07 00:11:25;;;;;;;;;;;;;;;20.26;54.90;101366.81;5019406;28;4143;-59
2023/01/07 00:13:52;;;;;;;;;;;;;;;20.26;55.12;101361.06;5021720;28;4892;-59
2023/01/07 00:16:19;;;;;;;;;;;;;;;20.25;54.81;101360.34;5018010;28;5212;-58
2023/01/07 00:18:49;;;;;;;;;;;;;;;20.25;55.01;101362.47;5024015;28;4355;-59
2023/01/07 00:21:16;;;;;;;;;;;;;;;20.24;54.91;101375.34;5020491;28;4128;-59
2023/01/07 00:23:42;;;;;;;;;;;;;;;20.23;55.10;101363.09;5023067;28;5456;-59
2023/01/07 00:26:09;;;;;;;;;;;;;;;20.23;54.96;101356.59;5017009;28;4244;-59
2023/01/07 00:28:36;;;;;;;;;;;;;;;20.22;54.96;101355.84;5022508;28;5063;-58
2023/01/07 00:31:03;;;;;;;;;;;;;;;20.20;54.90;101355.75;5024347;28;4182;-58
2023/01/07 00:33:30;;;;;;;;;;;;;;;20.21;55.03;101370.88;5000268;28;4906;-58
2023/01/07 00:36:00;;;;;;;;;;;;;;;20.21;55.11;101373.75;5024434;28;4099;-58
2023/01/07 00:38:27;;;;;;;;;;;;;;;20.20;55.06;101363.59;4995460;28;4195;-58
2023/01/07 00:40:53;;;;;;;;;;;;;;;20.20;54.90;101352.09;5000829;28;4158;-58
2023/01/07 00:43:19;;;;;;;;;;;;;;;20.19;55.00;101344.88;5025643;28;4021;-58
2023/01/07 00:45:46;;;;;;;;;;;;;;;20.18;54.91;101344.13;5023192;28;4048;-59
2023/01/07 00:48:12;;;;;;;;;;;;;;;20.18;54.88;101354.84;5025534;28;4150;-58
2023/01/07 00:50:41;;;;;;;;;;;;;;;20.18;54.88;101354.84;5012685;28;4216;-58
2023/01/07 00:53:08;;;;;;;;;;;;;;;20.16;54.90;101354.75;5024314;28;4349;-58
2023/01/07 00:55:34;;;;;;;;;;;;;;;20.16;55.02;101357.63;5025045;28;4410;-58
2023/01/07 00:58:01;;;;;;;;;;;;;;;20.17;54.88;101367.75;4998555;28;5201;-58
2023/01/07 01:00:27;;;;;;;;;;;;;;;20.16;55.03;101363.38;5006888;28;5275;-58
2023/01/07 01:02:58;;;;;;;;;;;;;;;20.15;55.04;101356.88;5013285;28;4132;-58
2023/01/07 01:05:24;;;;;;;;;;;;;;;20.15;54.95;101367.66;4999322;28;5336;-58
2023/01/07 01:07:51;;;;;;;;;;;;;;;20.15;55.14;101362.63;5010445;28;4170;-58
2023/01/07 01:10:18;;;;;;;;;;;;;;;20.15;55.04;101356.13;5004469;28;4135;-59
2023/01/07 01:12:48;;;;;;;;;;;;;;;20.15;54.93;101361.88;5001671;28;4189;-58
2023/01/07 01:15:15;;;;;;;;;;;;;;;20.13;55.07;101364.66;5023060;28;5228;-58
2023/01/07 01:17:41;;;;;;;;;;;;;;;20.13;55.18;101364.66;5022869;28;4017;-59
2023/01/07 01:20:09;;;;;;;;;;;;;;;20.12;55.01;101354.53;5023202;28;4184;-58
2023/01/07 01:22:36;;;;;;;;;;;;;;;20.12;55.07;101363.91;5005262;28;5455;-58
2023/01/07 01:25:05;;;;;;;;;;;;;;;20.12;55.00;101366.03;5005260;28;5276;-59
2023/01/07 01:27:32;;;;;;;;;;;;;;;20.11;55.00;101368.16;5005622;28;4080;-59
2023/01/07 01:29:58;;;;;;;;;;;;;;;20.13;55.27;101370.41;5018795;28;5238;-60
2023/01/07 01:32:26;;;;;;;;;;;;;;;20.12;55.31;101354.53;5021091;28;5303;-59
2023/01/07 01:34:53;;;;;;;;;;;;;;;20.11;55.22;101356.66;5006202;28;4198;-59
2023/01/07 01:37:19;;;;;;;;;;;;;;;20.11;55.32;101368.16;5005163;28;4307;-59
2023/01/07 01:39:46;;;;;;;;;;;;;;;20.11;55.40;101368.16;5001039;28;4197;-58
2023/01/07 01:42:14;;;;;;;;;;;;;;;20.09;55.40;101363.06;5018936;28;5198;-59
2023/01/07 01:44:49;;;;;;;;;;;;;;;20.08;55.55;101364.41;5006122;28;5238;-60
2023/01/07 01:47:45;;;;;;;;;;;;;;;20.07;55.41;101356.44;4998239;28;4110;-60
2023/01/07 01:50:22;;;;;;;;;;;;;;;20.10;56.15;101358.03;4998608;28;5643;-60
2023/01/07 01:53:00;;;;;;;;;;;;;;;20.11;55.62;101355.91;4995223;28;3977;-59
2023/01/07 01:55:29;;;;;;;;;;;;;;;20.08;55.72;101352.91;5004221;28;6352;-59
2023/01/07 01:57:58;;;;;;;;;;;;;;;20.08;55.75;101346.44;5005779;28;4117;-59
2023/01/07 02:00:24;;;;;;;;;;;;;;;20.07;55.83;101345.69;5006449;28;4134;-59
2023/01/07 02:02:53;;;;;;;;;;;;;;;20.08;56.09;101343.56;5001860;28;3998;-59
2023/01/07 02:05:19;;;;;;;;;;;;;;;20.06;55.86;101344.19;5024287;28;4198;-59
2023/01/07 02:07:46;;;;;;;;;;;;;;;20.05;55.92;101342.69;5007357;28;4212;-59
2023/01/07 02:10:14;;;;;;;;;;;;;;;20.05;55.97;101348.44;4998993;28;5454;-59
2023/01/07 02:12:55;;;;;;;;;;;;;;;20.04;55.78;101346.97;4997319;28;5664;-59
2023/01/07 02:15:31;;;;;;;;;;;;;;;20.04;55.67;101344.09;5009127;28;4142;-59
2023/01/07 02:18:03;;;;;;;;;;;;;;;20.02;55.77;101343.97;4963602;28;969458;-61
2023/01/07 02:20:30;;;;;;;;;;;;;;;20.03;55.77;101339.72;4990034;28;5171;-59
2023/01/07 02:23:02;;;;;;;;;;;;;;;20.03;55.79;101339.72;4997072;28;4196;-59
2023/01/07 02:25:40;;;;;;;;;;;;;;;20.00;55.86;101335.25;5025255;28;5535;-59
2023/01/07 02:28:25;;;;;;;;;;;;;;;20.01;55.82;101325.22;4985933;28;4065;-60
2023/01/07 02:30:52;;;;;;;;;;;;;;;20.02;55.66;101331.72;5019127;28;4142;-60
2023/01/07 02:33:38;;;;;;;;;;;;;;;20.01;55.63;101324.47;5019549;28;5479;-59
2023/01/07 02:36:07;;;;;;;;;;;;;;;20.00;55.73;101325.88;5030655;28;5417;-59
2023/01/07 02:38:36;;;;;;;;;;;;;;;19.98;55.70;101323.63;4987898;28;4011;-59
2023/01/07 02:41:13;;;;;;;;;;;;;;;19.99;55.71;101321.50;4980130;28;4214;-59
2023/01/07 02:43:43;;;;;;;;;;;;;;;19.99;55.71;101325.09;5004865;28;4170;-59
2023/01/07 02:46:17;;;;;;;;;;;;;;;19.97;55.58;101322.13;4997594;28;4070;-58
2023/01/07 02:48:43;;;;;;;;;;;;;;;19.98;55.58;101314.25;5020047;28;4001;-59
2023/01/07 02:51:09;;;;;;;;;;;;;;;19.97;55.55;101316.38;5023556;28;4238;-59
2023/01/07 02:53:36;;;;;;;;;;;;;;;19.98;55.55;101311.38;5010114;28;4182;-59
2023/01/07 02:56:05;;;;;;;;;;;;;;;19.97;55.47;101302.00;4995654;28;4017;-59
2023/01/07 02:58:43;;;;;;;;;;;;;;;19.96;55.65;101312.00;5008567;28;4111;-58
2023/01/07 03:05:28;;;;;;;;;;;;;;;19.95;55.58;101310.53;5012209;28;4299;-58
2023/01/07 03:08:01;;;;;;;;;;;;;;;19.95;55.41;101316.28;4995868;28;4244;-58
2023/01/07 03:10:36;;;;;;;;;;;;;;;19.94;55.50;101309.03;5002775;28;4107;-58
2023/01/07 03:13:04;;;;;;;;;;;;;;;19.93;55.36;101313.28;4979922;28;4121;-59
2023/01/07 03:15:33;;;;;;;;;;;;;;;19.94;55.48;101314.03;4997728;28;5227;-59
2023/01/07 03:17:59;;;;;;;;;;;;;;;19.93;55.47;101313.28;4997933;28;6378;-59
2023/01/07 03:20:25;;;;;;;;;;;;;;;19.93;55.50;101312.53;5020608;28;4134;-59
2023/01/07 03:22:52;;;;;;;;;;;;;;;19.93;55.52;101313.28;4998216;28;5301;-59
2023/01/07 03:25:19;;;;;;;;;;;;;;;19.92;55.29;101314.66;4996847;28;4192;-59
2023/01/07 03:27:45;;;;;;;;;;;;;;;19.92;55.36;101317.53;4986315;28;4111;-58
2023/01/07 03:30:12;;;;;;;;;;;;;;;19.91;55.52;101324.66;4987321;28;4288;-59
2023/01/07 03:32:47;;;;;;;;;;;;;;;19.91;55.48;101321.78;5021960;28;4186;-59
2023/01/07 03:35:14;;;;;;;;;;;;;;;19.91;55.39;101321.78;4998219;28;5567;-59
2023/01/07 03:37:41;;;;;;;;;;;;;;;19.91;55.49;101321.78;5019702;28;4194;-58
2023/01/07 03:40:09;;;;;;;;;;;;;;;19.92;55.46;101323.28;4995646;28;5190;-59
2023/01/07 03:42:40;;;;;;;;;;;;;;;19.93;55.34;101310.41;4998890;28;4177;-59
2023/01/07 03:45:13;;;;;;;;;;;;;;;19.95;55.30;101296.16;5002332;28;5578;-59
2023/01/07 03:47:40;;;;;;;;;;;;;;;19.96;55.28;101289.00;4994030;28;4358;-58
2023/01/07 03:50:06;;;;;;;;;;;;;;;19.99;55.38;101278.38;5001188;28;5357;-59
2023/01/07 03:52:37;;;;;;;;;;;;;;;20.02;55.49;101297.22;5004878;28;4062;-59
2023/01/07 03:55:04;;;;;;;;;;;;;;;20.02;55.60;101280.72;5020869;28;5355;-59
2023/01/07 03:57:31;;;;;;;;;;;;;;;20.03;55.36;101282.22;5002088;28;4208;-58
2023/01/07 03:59:59;;;;;;;;;;;;;;;20.03;55.52;101279.34;4996013;28;5296;-59
2023/01/07 04:02:28;;;;;;;;;;;;;;;20.03;55.39;101275.72;5021729;28;5242;-59
2023/01/07 04:04:55;;;;;;;;;;;;;;;20.03;55.48;101272.84;4997901;28;4105;-59
2023/01/07 04:07:22;;;;;;;;;;;;;;;20.02;55.47;101269.22;4993813;28;4942;-59
2023/01/07 04:09:49;;;;;;;;;;;;;;;20.02;55.53;101269.22;5001872;28;4131;-58
2023/01/07 04:12:16;;;;;;;;;;;;;;;20.03;55.79;101258.47;5021002;28;5301;-59
2023/01/07 04:14:43;;;;;;;;;;;;;;;20.05;55.78;101262.19;4995217;28;4173;-59
2023/01/07 04:17:10;;;;;;;;;;;;;;;20.05;55.57;101267.94;5002761;28;4199;-58
2023/01/07 04:19:37;;;;;;;;;;;;;;;20.05;55.35;101262.19;5021770;28;4201;-59
2023/01/07 04:22:04;;;;;;;;;;;;;;;20.07;55.74;101252.94;5002682;28;4085;-59
2023/01/07 04:24:32;;;;;;;;;;;;;;;20.09;55.63;101262.44;4997991;28;4325;-58
2023/01/07 04:26:58;;;;;;;;;;;;;;;20.11;55.44;101261.03;5004473;28;4731;-58
2023/01/07 04:29:24;;;;;;;;;;;;;;;20.11;55.32;101252.41;4994481;28;4206;-59
2023/01/07 04:31:51;;;;;;;;;;;;;;;20.11;55.49;101258.16;5020895;28;4131;-59
2023/01/07 04:34:18;;;;;;;;;;;;;;;20.09;55.46;101262.44;5020520;28;5462;-58
2023/01/07 04:36:44;;;;;;;;;;;;;;;20.09;55.54;101268.19;5020727;28;4425;-58
2023/01/07 04:39:11;;;;;;;;;;;;;;;20.09;55.51;101256.69;4993311;28;4118;-59
2023/01/07 04:41:37;;;;;;;;;;;;;;;20.09;55.62;101256.69;5020465;28;4253;-59
2023/01/07 04:44:04;;;;;;;;;;;;;;;20.08;55.64;101252.28;4996611;28;5457;-59
2023/01/07 04:46:32;;;;;;;;;;;;;;;20.09;55.57;101247.31;4995282;28;3986;-58
2023/01/07 04:48:58;;;;;;;;;;;;;;;20.09;55.45;101250.94;5005397;28;4218;-59
2023/01/07 04:51:24;;;;;;;;;;;;;;;20.11;55.44;101252.41;5020170;28;4108;-59
2023/01/07 04:53:51;;;;;;;;;;;;;;;20.11;55.64;101252.41;4993027;28;4145;-59
2023/01/07 04:56:17;;;;;;;;;;;;;;;20.12;55.42;101253.91;5021708;28;5206;-59
2023/01/07 04:58:45;;;;;;;;;;;;;;;20.12;55.44;101243.16;5003519;28;5229;-58
2023/01/07 05:01:12;;;;;;;;;;;;;;;20.14;55.31;101245.41;4997983;28;4140;-59
2023/01/07 05:03:38;;;;;;;;;;;;;;;20.14;55.61;101243.25;5018127;28;4238;-58
2023/01/07 05:06:08;;;;;;;;;;;;;;;20.14;55.45;101254.03;4992878;28;4426;-59
2023/01/07 05:08:36;;;;;;;;;;;;;;;20.14;55.43;101251.16;4996070;28;4288;-59
2023/01/07 05:11:03;;;;;;;;;;;;;;;20.14;55.51;101245.41;5017734;28;4098;-59
2023/01/07 05:13:31;;;;;;;;;;;;;;;20.14;55.64;101242.53;4999994;28;4321;-59
2023/01/07 05:15:59;;;;;;;;;;;;;;;20.14;55.56;101242.53;5023087;28;4155;-59
2023/01/07 05:18:25;;;;;;;;;;;;;;;20.12;55.53;101237.41;4998173;28;4162;-59
2023/01/07 05:20:52;;;;;;;;;;;;;;;20.13;55.68;101238.13;5022200;28;4022;-58
2023/01/07 05:23:18;;;;;;;;;;;;;;;20.14;55.57;101233.91;5022899;28;4137;-58
2023/01/07 05:25:46;;;;;;;;;;;;;;;20.15;55.46;101235.38;5005416;28;4155;-58
2023/01/07 05:28:12;;;;;;;;;;;;;;;20.16;55.46;101236.84;5003934;28;4724;-58
2023/01/07 05:30:40;;;;;;;;;;;;;;;20.17;55.49;101238.38;5004591;28;5336;-58
2023/01/07 05:33:06;;;;;;;;;;;;;;;20.17;55.41;101239.09;5001113;28;4171;-59
2023/01/07 05:35:34;;;;;;;;;;;;;;;20.19;55.45;101236.34;5000502;28;5321;-58
2023/01/07 05:38:04;;;;;;;;;;;;;;;20.17;55.44;101239.09;4999009;28;4127;-59
2023/01/07 05:40:31;;;;;;;;;;;;;;;20.19;55.61;101238.47;5021422;28;4193;-58
2023/01/07 05:42:57;;;;;;;;;;;;;;;20.18;55.61;101234.84;5020373;28;4133;-59
2023/01/07 05:45:26;;;;;;;;;;;;;;;20.18;55.53;101231.22;5003984;28;5092;-59
2023/01/07 05:47:52;;;;;;;;;;;;;;;20.17;55.37;101224.72;5022418;28;4206;-59
2023/01/07 05:50:18;;;;;;;;;;;;;;;20.18;55.49;101228.34;5022447;28;4256;-59
2023/01/07 05:52:45;;;;;;;;;;;;;;;20.17;55.45;101224.00;5023731;28;4158;-59
2023/01/07 05:55:14;;;;;;;;;;;;;;;20.17;55.60;101232.63;5022577;28;5392;-59
2023/01/07 05:57:40;;;;;;;;;;;;;;;20.18;55.64;101228.34;5021900;28;4173;-56
2023/01/07 06:00:09;;;;;;;;;;;;;;;20.18;55.51;101234.84;5018426;28;5029;-59
2023/01/07 06:02:38;;;;;;;;;;;;;;;20.18;55.42;101234.84;5020765;28;4118;-59
2023/01/07 06:05:04;;;;;;;;;;;;;;;20.20;55.37;101231.31;5021582;28;4471;-58
2023/01/07 06:07:31;;;;;;;;;;;;;;;20.19;55.37;101230.59;5022316;28;4014;-59
2023/01/07 06:09:57;;;;;;;;;;;;;;;20.21;55.34;101235.72;5021849;28;4156;-59
2023/01/07 06:12:23;;;;;;;;;;;;;;;20.20;55.74;101226.34;5021197;28;4102;-59
2023/01/07 06:14:50;;;;;;;;;;;;;;;20.21;55.49;101239.31;5020921;28;4480;-59
2023/01/07 06:17:16;;;;;;;;;;;;;;;20.21;55.70;101222.06;5022451;28;4180;-59
2023/01/07 06:19:42;;;;;;;;;;;;;;;20.21;55.90;101232.84;5022365;28;4519;-59
2023/01/07 06:22:09;;;;;;;;;;;;;;;20.21;55.70;101235.72;5018904;28;4482;-59
2023/01/07 06:24:35;;;;;;;;;;;;;;;20.20;55.66;101234.97;5017309;28;4033;-59
2023/01/07 06:27:01;;;;;;;;;;;;;;;20.20;55.97;101231.31;5021227;28;4046;-59
2023/01/07 06:29:31;;;;;;;;;;;;;;;20.22;55.88;101232.19;5019422;28;4137;-59
2023/01/07 06:31:57;;;;;;;;;;;;;;;20.21;55.89;101227.81;5019701;28;4190;-59
2023/01/07 06:34:23;;;;;;;;;;;;;;;20.08;54.74;101229.28;5023278;28;5388;-59
2023/01/07 06:36:50;;;;;;;;;;;;;;;19.95;53.82;101221.44;5023001;28;4010;-62
2023/01/07 06:39:16;;;;;;;;;;;;;;;19.80;53.77;101230.66;5022297;28;4035;-61
2023/01/07 06:41:42;;;;;;;;;;;;;;;19.70;53.26;101216.47;5024860;28;4071;-61
2023/01/07 06:44:09;;;;;;;;;;;;;;;18.83;52.47;101221.63;5022499;28;4105;-60
2023/01/07 06:46:35;;;;;;;;;;;;;;;19.15;51.61;101219.88;5021267;28;4011;-60
2023/01/07 06:49:02;;;;;;;;;;;;;;;19.47;51.93;101228.84;5018487;28;3973;-62
2023/01/07 06:51:28;;;;;;;;;;;;;;;19.75;51.95;101235.44;5021923;28;4852;-62
2023/01/07 06:54:03;;;;;;;;;;;;;;;19.90;52.30;101239.06;5021023;28;4014;-61
2023/01/07 06:56:32;;;;;;;;;;;;;;;20.01;52.80;101238.97;5013692;28;4138;-64
2023/01/07 06:58:59;;;;;;;;;;;;;;;20.05;52.94;101236.31;5018912;28;4192;-65
2023/01/07 07:01:25;;;;;;;;;;;;;;;20.07;52.96;101236.44;5021309;28;4323;-64
2023/01/07 07:03:52;;;;;;;;;;;;;;;20.09;53.30;101233.69;5022636;28;4021;-64
2023/01/07 07:06:18;;;;;;;;;;;;;;;20.07;53.40;101247.94;5019621;28;4148;-66
2023/01/07 07:08:44;;;;;;;;;;;;;;;20.11;53.23;101240.91;5022606;28;5188;-64
2023/01/07 07:11:11;;;;;;;;;;;;;;;20.13;53.44;101243.88;5015330;28;4258;-64
2023/01/07 07:13:37;;;;;;;;;;;;;;;20.15;53.73;101229.63;5011639;28;4135;-65
2023/01/07 07:16:03;;;;;;;;;;;;;;;20.15;53.91;101238.25;5021071;28;4181;-65
2023/01/07 07:18:30;;;;;;;;;;;;;;;20.16;54.09;101240.50;5021360;28;4311;-65
2023/01/07 07:20:57;;;;;;;;;;;;;;;20.16;54.31;101246.25;5020680;28;4026;-65
2023/01/07 07:23:23;;;;;;;;;;;;;;;20.18;54.65;101245.59;5023190;28;4217;-64
2023/01/07 07:25:50;;;;;;;;;;;;;;;20.17;54.29;101253.47;5024067;28;4290;-64
2023/01/07 07:28:16;;;;;;;;;;;;;;;20.18;54.51;101248.47;5022319;28;4008;-65
2023/01/07 07:30:42;;;;;;;;;;;;;;;19.66;52.77;101250.69;5014314;28;4144;-64
2023/01/07 07:33:13;;;;;;;;;;;;;;;19.46;52.89;101259.66;5021154;28;4181;-63
2023/01/07 07:35:40;;;;;;;;;;;;;;;19.81;53.44;101255.13;5023364;28;4200;-64
2023/01/07 07:38:06;;;;;;;;;;;;;;;19.95;54.12;101253.03;5015485;28;4313;-65
2023/01/07 07:40:32;;;;;;;;;;;;;;;20.13;53.89;101255.41;5022767;28;5118;-63
2023/01/07 07:42:59;;;;;;;;;;;;;;;20.17;53.90;101255.63;5020888;28;4133;-66
2023/01/07 07:45:37;;;;;;;;;;;;;;;20.24;54.05;101260.31;5013667;28;4294;-65
2023/01/07 07:48:04;;;;;;;;;;;;;;;20.20;54.27;101254.34;5020928;28;4077;-65
2023/01/07 07:50:30;;;;;;;;;;;;;;;20.18;54.64;101257.88;5015733;28;4227;-65
2023/01/07 07:52:57;;;;;;;;;;;;;;;20.18;54.70;101262.84;5022223;28;4139;-65
2023/01/07 07:55:23;;;;;;;;;;;;;;;20.18;54.72;101260.75;5023548;28;4169;-65
2023/01/07 07:57:52;;;;;;;;;;;;;;;20.18;54.78;101259.97;5021708;28;3961;-65
2023/01/07 08:00:18;;;;;;;;;;;;;;;20.18;54.96;101257.09;5020356;28;5556;-65
2023/01/07 08:02:45;;;;;;;;;;;;;;;20.17;54.95;101253.47;5016464;28;4149;-65
2023/01/07 08:05:11;;;;;;;;;;;;;;;20.17;54.90;101261.38;5017896;28;4181;-65
2023/01/07 08:07:38;;;;;;;;;;;;;;;20.18;54.90;101259.97;5000896;28;4369;-65
2023/01/07 08:10:04;;;;;;;;;;;;;;;20.16;55.05;101254.88;5023527;28;4192;-65
2023/01/07 08:12:31;;;;;;;;;;;;;;;20.16;55.08;101248.34;5023601;28;4235;-64
2023/01/07 08:14:57;;;;;;;;;;;;;;;20.16;55.08;101248.34;5022727;28;4166;-65
2023/01/07 08:17:23;;;;;;;;;;;;;;;20.17;55.13;101249.88;5022006;28;4417;-65
2023/01/07 08:19:50;;;;;;;;;;;;;;;20.16;55.20;101252.00;5024475;28;4173;-65
2023/01/07 08:22:16;;;;;;;;;;;;;;;20.16;55.21;101248.34;5023941;28;4430;-65
2023/01/07 08:24:42;;;;;;;;;;;;;;;20.17;55.04;101239.09;5019470;28;4541;-65
2023/01/07 08:27:09;;;;;;;;;;;;;;;20.17;55.36;101244.13;5017756;28;4130;-65
2023/01/07 08:29:35;;;;;;;;;;;;;;;20.18;55.37;101242.72;5021802;28;4194;-65
2023/01/07 08:32:01;;;;;;;;;;;;;;;20.18;55.02;101239.84;5021905;28;4885;-65
2023/01/07 08:34:28;;;;;;;;;;;;;;;20.20;55.31;101237.06;5022301;28;4120;-65
2023/01/07 08:36:54;;;;;;;;;;;;;;;20.21;55.20;101244.34;5022616;28;4186;-65
2023/01/07 08:39:20;;;;;;;;;;;;;;;20.21;55.16;101245.06;5022334;28;4075;-65
2023/01/07 08:41:47;;;;;;;;;;;;;;;20.21;55.04;101244.34;5020540;28;4060;-65
2023/01/07 08:44:13;;;;;;;;;;;;;;;20.21;55.22;101238.59;5021610;28;4283;-65
2023/01/07 08:46:41;;;;;;;;;;;;;;;20.21;55.13;101245.06;5023682;28;3944;-65
2023/01/07 08:49:08;;;;;;;;;;;;;;;20.21;55.21;101244.34;5026447;28;4198;-65
2023/01/07 08:51:35;;;;;;;;;;;;;;;20.22;55.38;101245.81;5029232;28;4215;-65
2023/01/07 08:54:01;;;;;;;;;;;;;;;20.21;55.31;101250.09;5023609;28;4159;-64
2023/01/07 08:56:27;;;;;;;;;;;;;;;20.21;55.25;101244.34;5025081;28;4133;-65
2023/01/07 08:58:54;;;;;;;;;;;;;;;20.20;55.42;101240.72;5028602;28;4151;-64
2023/01/07 09:01:20;;;;;;;;;;;;;;;20.21;55.38;101244.34;5027595;28;5175;-65
2023/01/07 09:03:47;;;;;;;;;;;;;;;20.22;55.19;101245.81;5021618;28;4179;-65
2023/01/07 09:06:13;;;;;;;;;;;;;;;20.23;55.01;101241.56;5024103;28;4130;-65
2023/01/07 09:08:39;;;;;;;;;;;;;;;20.22;55.35;101235.06;5027281;28;4176;-65
2023/01/07 09:11:06;;;;;;;;;;;;;;;20.25;55.27;101233.78;5027590;28;4181;-66
2023/01/07 09:13:32;;;;;;;;;;;;;;;20.25;55.24;101227.31;5023318;28;5227;-65
2023/01/07 09:15:59;;;;;;;;;;;;;;;20.27;55.25;101224.50;5028366;28;3973;-65
2023/01/07 09:18:25;;;;;;;;;;;;;;;20.26;55.47;101237.41;5026555;28;4150;-65
2023/01/07 09:20:51;;;;;;;;;;;;;;;20.26;55.27;101231.66;5027580;28;4185;-65
2023/01/07 09:23:18;;;;;;;;;;;;;;;20.26;55.30;101229.53;5026141;28;4121;-65
2023/01/07 09:25:44;;;;;;;;;;;;;;;20.24;55.22;101220.78;5026968;28;4155;-64
2023/01/07 09:28:10;;;;;;;;;;;;;;;20.27;55.25;101218.75;5024850;28;3994;-65
2023/01/07 09:30:37;;;;;;;;;;;;;;;20.25;55.51;101222.28;5023454;28;5345;-65
2023/01/07 09:33:03;;;;;;;;;;;;;;;20.25;55.17;101227.31;5023157;28;5166;-65
2023/01/07 09:35:29;;;;;;;;;;;;;;;20.25;55.43;101221.56;5026678;28;4002;-65
2023/01/07 09:37:56;;;;;;;;;;;;;;;20.26;55.46;101226.66;5027356;28;5121;-65
2023/01/07 09:40:30;;;;;;;;;;;;;;;20.27;55.33;101224.50;5026413;28;4141;-65
2023/01/07 09:42:57;;;;;;;;;;;;;;;20.28;55.35;101226.00;5007779;28;4108;-65
2023/01/07 09:45:25;;;;;;;;;;;;;;;20.29;55.23;101222.50;5008618;28;5150;-64
2023/01/07 09:47:58;;;;;;;;;;;;;;;20.31;55.19;101230.47;5001828;28;4126;-65
2023/01/07 09:50:24;;;;;;;;;;;;;;;20.31;55.16;101218.97;5026389;28;4186;-65
2023/01/07 09:52:52;;;;;;;;;;;;;;;20.31;55.20;101224.72;5026283;28;3942;-64
2023/01/07 09:55:23;;;;;;;;;;;;;;;20.31;55.22;101218.97;5023760;28;4120;-64
2023/01/07 09:57:49;;;;;;;;;;;;;;;20.31;55.12;101224.72;4998501;28;4081;-65
2023/01/07 10:00:16;;;;;;;;;;;;;;;20.31;55.23;101210.34;5021853;28;4289;-64
2023/01/07 10:02:52;;;;;;;;;;;;;;;20.31;55.32;101210.34;5026348;28;4466;-65
2023/01/07 10:05:37;;;;;;;;;;;;;;;20.31;55.40;101218.97;5008413;28;4148;-64
2023/01/07 10:08:07;;;;;;;;;;;;;;;20.31;55.34;101207.47;5025304;28;4529;-65
2023/01/07 10:10:59;;;;;;;;;;;;;;;20.31;55.15;101207.47;5011856;28;4225;-65
2023/01/07 10:13:44;;;;;;;;;;;;;;;20.31;55.45;101195.97;5008765;28;3926;-65
2023/01/07 10:16:16;;;;;;;;;;;;;;;20.32;55.18;101203.22;5025709;28;4241;-65
2023/01/07 10:18:52;;;;;;;;;;;;;;;20.33;55.14;101198.22;5025002;28;4011;-65
2023/01/07 10:21:45;;;;;;;;;;;;;;;20.34;55.31;101194.72;5025097;28;4262;-64
2023/01/07 10:24:27;;;;;;;;;;;;;;;20.34;55.06;101186.09;5019026;28;3977;-65
2023/01/07 10:26:58;;;;;;;;;;;;;;;20.36;55.11;101185.41;5021758;28;4251;-65
2023/01/07 10:29:27;;;;;;;;;;;;;;;20.35;55.22;101178.94;5000950;28;4130;-65
2023/01/07 10:31:53;;;;;;;;;;;;;;;20.36;55.33;101179.66;5025499;28;4004;-64
2023/01/07 10:34:24;;;;;;;;;;;;;;;20.35;55.29;101173.19;5002484;28;4178;-64
2023/01/07 10:37:06;;;;;;;;;;;;;;;20.34;55.27;101171.69;5024512;28;5142;-64
2023/01/07 10:39:37;;;;;;;;;;;;;;;20.35;55.10;101173.19;4996166;28;4173;-64
2023/01/07 10:42:05;;;;;;;;;;;;;;;20.35;55.20;101172.44;5021740;28;4180;-65
2023/01/07 10:44:50;;;;;;;;;;;;;;;20.35;55.36;101163.81;4995066;28;5479;-65
2023/01/07 10:47:24;;;;;;;;;;;;;;;20.35;55.08;101167.41;5020525;28;4250;-65
2023/01/07 10:50:09;;;;;;;;;;;;;;;20.34;55.08;101165.94;5002568;28;5268;-65
2023/01/07 10:52:44;;;;;;;;;;;;;;;20.35;55.30;101160.94;5019784;28;4016;-65
2023/01/07 10:55:28;;;;;;;;;;;;;;;20.34;55.31;101154.44;4997311;28;4363;-66
2023/01/07 10:57:54;;;;;;;;;;;;;;;20.32;55.28;101151.47;5020588;28;4162;-65
2023/01/07 11:00:21;;;;;;;;;;;;;;;20.34;55.32;101148.69;5018952;28;4327;-65
2023/01/07 11:02:49;;;;;;;;;;;;;;;20.33;55.20;101147.19;4997810;28;4110;-65
2023/01/07 11:05:20;;;;;;;;;;;;;;;20.32;55.23;101142.84;5002151;28;4343;-65
2023/01/07 11:07:50;;;;;;;;;;;;;;;20.33;55.36;101135.69;5000466;28;4326;-64
2023/01/07 11:10:23;;;;;;;;;;;;;;;20.32;55.13;101127.69;5004187;28;4016;-65
2023/01/07 11:12:51;;;;;;;;;;;;;;;20.32;55.24;101134.19;5023245;28;4294;-67
2023/01/07 11:15:19;;;;;;;;;;;;;;;20.32;55.21;101128.44;5023680;28;4300;-65
2023/01/07 11:17:47;;;;;;;;;;;;;;;20.32;55.37;101130.56;4999701;28;4213;-65
2023/01/07 11:20:18;;;;;;;;;;;;;;;20.30;55.34;101131.97;4993072;28;5526;-65
2023/01/07 11:22:44;;;;;;;;;;;;;;;20.31;55.52;101124.06;5000892;28;5270;-67
2023/01/07 11:25:21;;;;;;;;;;;;;;;20.30;55.26;101113.97;4997289;28;4105;-66
2023/01/07 11:27:47;;;;;;;;;;;;;;;20.30;55.48;101117.56;4998056;28;4276;-65
2023/01/07 11:30:20;;;;;;;;;;;;;;;20.31;55.56;101121.19;5024108;28;4084;-66
2023/01/07 11:32:53;;;;;;;;;;;;;;;20.30;55.39;101108.22;5023500;28;4112;-65
2023/01/07 11:35:19;;;;;;;;;;;;;;;20.31;55.41;101118.31;4999171;28;4184;-65
2023/01/07 11:37:48;;;;;;;;;;;;;;;20.30;55.58;101108.22;5019716;28;4214;-65
2023/01/07 11:40:14;;;;;;;;;;;;;;;20.31;55.41;101109.69;5021683;28;4370;-65
2023/01/07 11:42:47;;;;;;;;;;;;;;;20.32;55.65;101096.81;5020740;28;4216;-65
2023/01/07 11:45:20;;;;;;;;;;;;;;;20.33;55.52;101101.16;5017813;28;4383;-65
2023/01/07 11:47:47;;;;;;;;;;;;;;;20.33;55.35;101098.28;5017511;28;4056;-65
2023/01/07 11:50:20;;;;;;;;;;;;;;;20.34;55.37;101108.41;5006456;28;4216;-65
2023/01/07 11:52:59;;;;;;;;;;;;;;;20.35;55.29;101098.41;5016422;28;4177;-65
2023/01/07 11:55:26;;;;;;;;;;;;;;;20.35;55.58;101097.66;5000435;28;3936;-65
2023/01/07 11:57:53;;;;;;;;;;;;;;;20.35;55.28;101095.53;5016593;28;4208;-65
2023/01/07 12:00:30;;;;;;;;;;;;;;;20.35;55.25;101092.66;5018797;28;4163;-65
2023/01/07 12:03:00;;;;;;;;;;;;;;;20.37;55.46;101084.13;5020508;28;4188;-65
2023/01/07 12:05:27;;;;;;;;;;;;;;;20.37;55.12;101084.13;5020399;28;4176;-65
2023/01/07 12:07:53;;;;;;;;;;;;;;;20.36;55.30;101082.63;5021298;28;4532;-65
2023/01/07 12:10:23;;;;;;;;;;;;;;;20.36;55.26;101074.00;5000548;28;4535;-65
2023/01/07 12:12:49;;;;;;;;;;;;;;;20.36;55.36;101081.88;5020696;28;4184;-65
2023/01/07 12:15:19;;;;;;;;;;;;;;;20.36;55.39;101081.88;5004944;28;4130;-65
2023/01/07 12:17:46;;;;;;;;;;;;;;;20.35;55.49;101069.63;5019722;28;4132;-65
2023/01/07 12:20:24;;;;;;;;;;;;;;;20.34;55.44;101073.91;5014568;28;4194;-65
2023/01/07 12:23:09;;;;;;;;;;;;;;;20.34;55.43;101071.03;5020765;28;4306;-66
2023/01/07 12:25:36;;;;;;;;;;;;;;;20.33;55.71;101075.28;5027272;28;4170;-67
2023/01/07 12:28:08;;;;;;;;;;;;;;;20.34;55.44;101062.41;5020403;28;4090;-65
2023/01/07 12:30:53;;;;;;;;;;;;;;;20.34;56.29;101056.66;5022417;28;4494;-66
2023/01/07 12:33:29;;;;;;;;;;;;;;;20.35;55.88;101058.13;5022752;28;4101;-67
2023/01/07 12:36:00;;;;;;;;;;;;;;;20.37;55.73;101055.38;5024253;28;4193;-67
2023/01/07 12:38:31;;;;;;;;;;;;;;;20.38;55.79;101056.09;4998022;28;4029;-66
2023/01/07 12:40:59;;;;;;;;;;;;;;;20.39;56.33;101046.84;5003623;28;4172;-67
2023/01/07 12:43:32;;;;;;;;;;;;;;;20.40;56.48;101041.81;5024000;28;4156;-68
2023/01/07 12:45:59;;;;;;;;;;;;;;;20.42;56.37;101045.53;5008519;28;4113;-69
2023/01/07 12:48:27;;;;;;;;;;;;;;;20.42;57.16;101045.53;5008609;28;4167;-66
2023/01/07 12:50:54;;;;;;;;;;;;;;;20.45;57.30;101038.50;5027202;28;4051;-66
2023/01/07 12:53:26;;;;;;;;;;;;;;;20.46;57.32;101037.13;5025700;28;4106;-67
2023/01/07 12:55:57;;;;;;;;;;;;;;;20.47;57.45;101041.47;5007260;28;3983;-67
2023/01/07 12:58:43;;;;;;;;;;;;;;;20.45;57.35;101029.84;5004964;28;4047;-67
2023/01/07 13:01:18;;;;;;;;;;;;;;;20.47;58.09;101029.97;5025543;28;4416;-67